Time,TemperatureF,DewpointF,PressureIn,WindDirection,WindDirectionDegrees,WindSpeedMPH,WindSpeedGustMPH,Humidity,HourlyPrecipIn,Conditions,Clouds,dailyrainin,SolarRadiationWatts/m^2,SoftwareType,DateUTC
2013-11-12 00:02:00,32.0,25.0,-100.00,NNE,24,3.0,8.0,74,0.00,,,0.00,0.000000,,2013-11-12 09:02:00,
2013-11-12 00:11:00,32.0,25.0,-100.00,NNE,24,3.0,8.0,74,0.00,,,0.00,0.000000,,2013-11-12 09:11:00,
2013-11-12 00:21:00,32.0,25.0,-100.00,NNE,24,3.0,8.0,74,0.00,,,0.00,0.000000,,2013-11-12 09:21:00,
2013-11-12 00:53:00,34.0,26.0,-100.00,NNE,16,5.0,10.0,73,0.00,,,0.00,0.000000,,2013-11-12 09:53:00,
2013-11-12 01:03:00,34.0,26.0,-100.00,NNE,16,5.0,10.0,73,0.00,,,0.00,0.000000,,2013-11-12 10:03:00,
2013-11-12 01:12:00,34.0,26.0,-100.00,NNE,16,5.0,10.0,73,0.00,,,0.00,0.000000,,2013-11-12 10:12:00,
2013-11-12 01:23:00,34.0,26.0,-100.00,NNE,16,5.0,10.0,73,0.00,,,0.00,0.000000,,2013-11-12 10:23:00,
2013-11-12 01:53:00,34.0,25.0,-100.00,NNE,13,3.0,10.0,69,0.00,,,0.00,0.000000,,2013-11-12 10:53:00,
2013-11-12 02:02:00,34.0,25.0,-100.00,NNE,13,3.0,10.0,69,0.00,,,0.00,0.000000,,2013-11-12 11:02:00,
2013-11-12 02:12:00,34.0,25.0,-100.00,NNE,13,3.0,10.0,69,0.00,,,0.00,0.000000,,2013-11-12 11:12:00,
2013-11-12 02:22:00,34.0,25.0,-100.00,NNE,13,3.0,10.0,69,0.00,,,0.00,0.000000,,2013-11-12 11:22:00,
2013-11-12 03:52:00,32.0,28.0,-100.00,NE,34,3.0,7.0,84,-99.99,,,0.00,0.000000,,2013-11-12 12:52:00,
2013-11-12 04:01:00,32.0,28.0,-100.00,NE,34,3.0,7.0,84,-99.99,,,0.00,0.000000,,2013-11-12 13:01:00,
2013-11-12 04:11:00,32.0,28.0,-100.00,NE,34,3.0,7.0,84,-99.99,,,0.00,0.000000,,2013-11-12 13:11:00,
2013-11-12 04:21:00,32.0,28.0,-100.00,NE,34,3.0,7.0,84,-99.99,,,0.00,0.000000,,2013-11-12 13:21:00,
2013-11-12 04:52:00,32.0,25.0,-100.00,North,11,4.0,9.0,74,0.00,,,-99.99,0.000000,,2013-11-12 13:52:00,
2013-11-12 05:02:00,32.0,25.0,-100.00,North,11,4.0,9.0,74,0.00,,,-99.99,0.000000,,2013-11-12 14:02:00,
2013-11-12 05:11:00,32.0,25.0,-100.00,North,11,4.0,9.0,74,0.00,,,-99.99,0.000000,,2013-11-12 14:11:00,
2013-11-12 05:21:00,32.0,25.0,-100.00,North,11,4.0,9.0,74,0.00,,,-99.99,0.000000,,2013-11-12 14:21:00,
2013-11-12 05:52:00,32.0,25.0,-100.00,NNE,21,3.0,7.0,74,0.00,,,0.00,0.000000,,2013-11-12 14:52:00,
2013-11-12 06:02:00,32.0,25.0,-100.00,NNE,21,3.0,7.0,74,0.00,,,0.00,0.000000,,2013-11-12 15:02:00,
2013-11-12 06:11:00,32.0,25.0,-100.00,NNE,21,3.0,7.0,74,0.00,,,0.00,0.000000,,2013-11-12 15:11:00,
2013-11-12 06:21:00,32.0,25.0,-100.00,NNE,21,3.0,7.0,74,0.00,,,0.00,0.000000,,2013-11-12 15:21:00,
2013-11-12 06:53:00,32.0,25.0,-100.00,North,7,3.0,8.0,74,0.00,,,0.00,0.000000,,2013-11-12 15:53:00,
2013-11-12 07:03:00,32.0,25.0,-100.00,North,7,3.0,8.0,74,0.00,,,0.00,0.000000,,2013-11-12 16:03:00,
2013-11-12 07:12:00,32.0,25.0,-100.00,North,7,3.0,8.0,74,0.00,,,0.00,0.000000,,2013-11-12 16:12:00,
2013-11-12 07:23:00,32.0,25.0,-100.00,North,7,3.0,8.0,74,0.00,,,0.00,0.000000,,2013-11-12 16:23:00,
2013-11-12 07:53:00,32.0,24.0,-100.00,NNE,13,3.0,8.0,72,0.00,,,0.00,0.000000,,2013-11-12 16:53:00,
2013-11-12 08:02:00,32.0,24.0,-100.00,NNE,13,3.0,8.0,72,0.00,,,0.00,0.000000,,2013-11-12 17:02:00,
2013-11-12 08:12:00,32.0,24.0,-100.00,NNE,13,3.0,8.0,72,0.00,,,0.00,0.000000,,2013-11-12 17:12:00,
2013-11-12 08:22:00,32.0,24.0,-100.00,NNE,13,3.0,8.0,72,0.00,,,0.00,0.000000,,2013-11-12 17:22:00,
2013-11-12 08:52:00,32.0,22.0,-100.00,NNE,29,3.0,7.0,67,0.00,,,0.00,0.000000,,2013-11-12 17:52:00,
2013-11-12 09:01:00,32.0,22.0,-100.00,NNE,29,3.0,7.0,67,0.00,,,0.00,0.000000,,2013-11-12 18:01:00,
2013-11-12 09:12:00,32.0,22.0,-100.00,NNE,29,3.0,7.0,67,0.00,,,0.00,0.000000,,2013-11-12 18:12:00,
2013-11-12 09:22:00,32.0,22.0,-100.00,NNE,29,3.0,7.0,67,0.00,,,0.00,0.000000,,2013-11-12 18:22:00,
2013-11-12 09:52:00,32.0,22.0,-100.00,NNE,19,4.0,7.0,65,0.00,,,0.00,12.000000,,2013-11-12 18:52:00,
2013-11-12 10:01:00,32.0,22.0,-100.00,NNE,19,4.0,7.0,65,0.00,,,0.00,12.000000,,2013-11-12 19:01:00,
2013-11-12 10:11:00,32.0,22.0,-100.00,NNE,19,4.0,7.0,65,0.00,,,0.00,12.000000,,2013-11-12 19:11:00,
2013-11-12 10:21:00,32.0,22.0,-100.00,NNE,19,4.0,7.0,65,0.00,,,0.00,12.000000,,2013-11-12 19:21:00,
2013-11-12 10:52:00,32.0,21.0,-100.00,North,11,4.0,10.0,64,0.00,,,0.00,61.000000,,2013-11-12 19:52:00,
2013-11-12 11:01:00,32.0,21.0,-100.00,North,11,4.0,10.0,64,0.00,,,0.00,61.000000,,2013-11-12 20:01:00,
2013-11-12 11:11:00,32.0,21.0,-100.00,North,11,4.0,10.0,64,0.00,,,0.00,61.000000,,2013-11-12 20:11:00,
2013-11-12 11:21:00,32.0,21.0,-100.00,North,11,4.0,10.0,64,0.00,,,0.00,61.000000,,2013-11-12 20:21:00,
2013-11-12 11:52:00,32.0,21.0,-100.00,North,3,5.0,10.0,63,0.00,,,0.00,68.000000,,2013-11-12 20:52:00,
2013-11-12 12:02:00,32.0,21.0,-100.00,North,3,5.0,10.0,63,0.00,,,0.00,68.000000,,2013-11-12 21:02:00,
2013-11-12 12:12:00,32.0,21.0,-100.00,North,3,5.0,10.0,63,0.00,,,0.00,68.000000,,2013-11-12 21:12:00,
2013-11-12 12:22:00,32.0,21.0,-100.00,North,3,5.0,10.0,63,0.00,,,0.00,68.000000,,2013-11-12 21:22:00,
2013-11-12 12:24:00,32.0,21.0,-100.00,North,1,5.0,8.0,64,0.00,,,-99.99,63.000000,,2013-11-12 21:24:00,
2013-11-12 12:54:00,32.0,21.0,-100.00,North,1,5.0,8.0,64,0.00,,,-99.99,63.000000,,2013-11-12 21:54:00,
2013-11-12 13:04:00,32.0,21.0,-100.00,North,1,5.0,8.0,64,0.00,,,-99.99,63.000000,,2013-11-12 22:04:00,
2013-11-12 13:14:00,32.0,21.0,-100.00,North,1,5.0,8.0,64,0.00,,,-99.99,63.000000,,2013-11-12 22:14:00,
2013-11-12 13:54:00,32.0,20.0,-100.00,North,6,5.0,9.0,61,0.00,,,-99.99,65.000000,,2013-11-12 22:54:00,
2013-11-12 14:03:00,32.0,20.0,-100.00,North,6,5.0,9.0,61,0.00,,,-99.99,65.000000,,2013-11-12 23:03:00,
2013-11-12 14:12:00,32.0,20.0,-100.00,North,6,5.0,9.0,61,0.00,,,-99.99,65.000000,,2013-11-12 23:12:00,
2013-11-12 14:23:00,32.0,20.0,-100.00,North,6,5.0,9.0,61,0.00,,,-99.99,65.000000,,2013-11-12 23:23:00,
2013-11-12 14:54:00,32.0,20.0,-100.00,North,358,4.0,7.0,60,0.00,,,-99.99,42.000000,,2013-11-12 23:54:00,
2013-11-12 15:02:00,32.0,20.0,-100.00,North,358,4.0,7.0,60,0.00,,,-99.99,42.000000,,2013-11-13 00:02:00,
2013-11-12 15:11:00,32.0,20.0,-100.00,North,358,4.0,7.0,60,0.00,,,-99.99,42.000000,,2013-11-13 00:11:00,
2013-11-12 15:22:00,32.0,20.0,-100.00,North,358,4.0,7.0,60,0.00,,,-99.99,42.000000,,2013-11-13 00:22:00,
2013-11-12 15:52:00,32.0,20.0,-100.00,North,359,4.0,8.0,62,0.00,,,-99.99,28.000000,,2013-11-13 00:52:00,
2013-11-12 16:01:00,32.0,20.0,-100.00,North,359,4.0,8.0,62,0.00,,,-99.99,28.000000,,2013-11-13 01:01:00,
2013-11-12 16:11:00,32.0,20.0,-100.00,North,359,4.0,8.0,62,0.00,,,-99.99,28.000000,,2013-11-13 01:11:00,
2013-11-12 16:22:00,32.0,20.0,-100.00,North,359,4.0,8.0,62,0.00,,,-99.99,28.000000,,2013-11-13 01:22:00,
2013-11-12 16:52:00,32.0,23.0,-100.00,North,0,4.0,12.0,68,0.00,,,0.00,3.000000,,2013-11-13 01:52:00,
2013-11-12 17:01:00,32.0,23.0,-100.00,North,0,4.0,12.0,68,0.00,,,0.00,3.000000,,2013-11-13 02:01:00,
2013-11-12 17:11:00,32.0,23.0,-100.00,North,0,4.0,12.0,68,0.00,,,0.00,3.000000,,2013-11-13 02:11:00,
2013-11-12 17:22:00,32.0,23.0,-100.00,North,0,4.0,12.0,68,0.00,,,0.00,3.000000,,2013-11-13 02:22:00,
2013-11-12 17:52:00,30.0,20.0,-100.00,NNE,17,3.0,10.0,66,0.00,,,0.00,0.000000,,2013-11-13 02:52:00,
2013-11-12 18:02:00,30.0,20.0,-100.00,NNE,17,3.0,10.0,66,0.00,,,0.00,0.000000,,2013-11-13 03:02:00,
2013-11-12 18:11:00,30.0,20.0,-100.00,NNE,17,3.0,10.0,66,0.00,,,0.00,0.000000,,2013-11-13 03:11:00,
2013-11-12 18:22:00,30.0,20.0,-100.00,NNE,17,3.0,10.0,66,0.00,,,0.00,0.000000,,2013-11-13 03:22:00,
2013-11-12 18:54:00,30.0,21.0,-100.00,North,11,4.0,9.0,67,0.00,,,0.00,0.000000,,2013-11-13 03:54:00,
2013-11-12 19:04:00,30.0,21.0,-100.00,North,11,4.0,9.0,67,0.00,,,0.00,0.000000,,2013-11-13 04:04:00,
2013-11-12 19:14:00,30.0,21.0,-100.00,North,11,4.0,9.0,67,0.00,,,0.00,0.000000,,2013-11-13 04:14:00,
2013-11-12 19:23:00,30.0,21.0,-100.00,North,11,4.0,9.0,67,0.00,,,0.00,0.000000,,2013-11-13 04:23:00,
2013-11-12 19:53:00,30.0,19.0,-100.00,North,5,3.0,10.0,63,0.00,,,0.00,0.000000,,2013-11-13 04:53:00,
2013-11-12 20:03:00,30.0,19.0,-100.00,North,5,3.0,10.0,63,0.00,,,0.00,0.000000,,2013-11-13 05:03:00,
2013-11-12 20:13:00,30.0,19.0,-100.00,North,5,3.0,10.0,63,0.00,,,0.00,0.000000,,2013-11-13 05:13:00,
2013-11-12 20:23:00,30.0,19.0,-100.00,North,5,3.0,10.0,63,0.00,,,0.00,0.000000,,2013-11-13 05:23:00,
2013-11-12 20:53:00,30.0,22.0,-100.00,NNE,20,4.0,10.0,71,0.00,,,0.00,0.000000,,2013-11-13 05:53:00,
2013-11-12 21:03:00,30.0,22.0,-100.00,NNE,20,4.0,10.0,71,0.00,,,0.00,0.000000,,2013-11-13 06:03:00,
2013-11-12 21:13:00,30.0,22.0,-100.00,NNE,20,4.0,10.0,71,0.00,,,0.00,0.000000,,2013-11-13 06:13:00,
2013-11-12 21:22:00,30.0,22.0,-100.00,NNE,20,4.0,10.0,71,0.00,,,0.00,0.000000,,2013-11-13 06:22:00,
2013-11-12 21:52:00,30.0,24.0,-100.00,NNE,16,4.0,9.0,76,0.00,,,0.00,0.000000,,2013-11-13 06:52:00,
2013-11-12 22:02:00,30.0,24.0,-100.00,NNE,16,4.0,9.0,76,0.00,,,0.00,0.000000,,2013-11-13 07:02:00,
2013-11-12 22:11:00,30.0,24.0,-100.00,NNE,16,4.0,9.0,76,0.00,,,0.00,0.000000,,2013-11-13 07:11:00,
2013-11-12 22:21:00,30.0,24.0,-100.00,NNE,16,4.0,9.0,76,0.00,,,0.00,0.000000,,2013-11-13 07:21:00,
2013-11-12 22:52:00,28.0,20.0,-100.00,NE,38,3.0,7.0,71,0.00,,,0.00,0.000000,,2013-11-13 07:52:00,
2013-11-12 23:01:00,28.0,20.0,-100.00,NE,38,3.0,7.0,71,0.00,,,0.00,0.000000,,2013-11-13 08:01:00,
2013-11-12 23:11:00,28.0,20.0,-100.00,NE,38,3.0,7.0,71,0.00,,,0.00,0.000000,,2013-11-13 08:11:00,
2013-11-12 23:22:00,28.0,20.0,-100.00,NE,38,3.0,7.0,71,0.00,,,0.00,0.000000,,2013-11-13 08:22:00,
2013-11-12 23:52:00,28.0,21.0,-100.00,NE,34,2.0,7.0,74,0.00,,,0.00,0.000000,,2013-11-13 08:52:00,